sensor_id;sensor_type;location;lat;lon;timestamp;P1;durP1;ratioP1;P2;durP2;ratioP2
53287;SDS011;39172;45.550;12.072;2022-11-09T00:02:21;13.50;;;8.77;;
53287;SDS011;39172;45.550;12.072;2022-11-09T00:08:22;12.00;;;7.38;;
53287;SDS011;39172;45.550;12.072;2022-11-09T00:14:23;13.20;;;8.82;;
53287;SDS011;39172;45.550;12.072;2022-11-09T00:20:24;10.48;;;7.45;;
53287;SDS011;39172;45.550;12.072;2022-11-09T00:26:25;22.27;;;14.15;;
53287;SDS011;39172;45.550;12.072;2022-11-09T00:32:26;16.65;;;10.63;;
53287;SDS011;39172;45.550;12.072;2022-11-09T00:38:28;17.00;;;12.15;;
53287;SDS011;39172;45.550;12.072;2022-11-09T00:44:28;17.80;;;11.40;;
53287;SDS011;39172;45.550;12.072;2022-11-09T00:50:29;20.70;;;13.65;;
53287;SDS011;39172;45.550;12.072;2022-11-09T00:56:31;16.65;;;10.77;;
53287;SDS011;39172;45.550;12.072;2022-11-09T01:02:32;12.70;;;7.82;;
53287;SDS011;39172;45.550;12.072;2022-11-09T01:08:33;16.45;;;10.98;;
53287;SDS011;39172;45.550;12.072;2022-11-09T01:14:35;12.57;;;8.48;;
53287;SDS011;39172;45.550;12.072;2022-11-09T01:20:38;15.25;;;10.20;;
53287;SDS011;39172;45.550;12.072;2022-11-09T01:26:39;12.35;;;8.63;;
53287;SDS011;39172;45.550;12.072;2022-11-09T01:32:41;15.35;;;9.35;;
53287;SDS011;39172;45.550;12.072;2022-11-09T01:38:42;10.93;;;7.53;;
53287;SDS011;39172;45.550;12.072;2022-11-09T01:44:42;20.15;;;11.60;;
53287;SDS011;39172;45.550;12.072;2022-11-09T01:50:51;13.85;;;8.63;;
53287;SDS011;39172;45.550;12.072;2022-11-09T01:56:53;12.83;;;8.30;;
53287;SDS011;39172;45.550;12.072;2022-11-09T02:02:57;14.85;;;9.95;;
53287;SDS011;39172;45.550;12.072;2022-11-09T02:09:08;11.90;;;8.13;;
53287;SDS011;39172;45.550;12.072;2022-11-09T02:15:09;15.38;;;9.68;;
53287;SDS011;39172;45.550;12.072;2022-11-09T02:21:12;13.80;;;8.63;;
53287;SDS011;39172;45.550;12.072;2022-11-09T02:27:14;15.77;;;11.10;;
53287;SDS011;39172;45.550;12.072;2022-11-09T02:33:15;11.07;;;7.15;;
53287;SDS011;39172;45.550;12.072;2022-11-09T02:39:17;13.27;;;8.50;;
53287;SDS011;39172;45.550;12.072;2022-11-09T02:45:19;11.57;;;7.47;;
53287;SDS011;39172;45.550;12.072;2022-11-09T02:51:20;15.45;;;9.82;;
53287;SDS011;39172;45.550;12.072;2022-11-09T02:57:22;15.02;;;9.77;;
53287;SDS011;39172;45.550;12.072;2022-11-09T03:03:24;14.55;;;9.45;;
53287;SDS011;39172;45.550;12.072;2022-11-09T03:09:26;12.38;;;8.30;;
53287;SDS011;39172;45.550;12.072;2022-11-09T03:15:27;15.05;;;10.27;;
53287;SDS011;39172;45.550;12.072;2022-11-09T03:21:28;20.45;;;13.38;;
53287;SDS011;39172;45.550;12.072;2022-11-09T03:27:29;22.73;;;14.20;;
53287;SDS011;39172;45.550;12.072;2022-11-09T03:33:30;18.48;;;11.93;;
53287;SDS011;39172;45.550;12.072;2022-11-09T03:39:31;18.30;;;11.88;;
53287;SDS011;39172;45.550;12.072;2022-11-09T03:45:33;14.95;;;10.50;;
53287;SDS011;39172;45.550;12.072;2022-11-09T03:51:34;19.38;;;12.30;;
53287;SDS011;39172;45.550;12.072;2022-11-09T03:57:35;22.25;;;13.27;;
53287;SDS011;39172;45.550;12.072;2022-11-09T04:03:36;15.10;;;10.38;;
53287;SDS011;39172;45.550;12.072;2022-11-09T04:09:37;14.02;;;9.35;;
53287;SDS011;39172;45.550;12.072;2022-11-09T04:15:38;10.07;;;7.07;;
53287;SDS011;39172;45.550;12.072;2022-11-09T04:21:39;13.00;;;8.20;;
53287;SDS011;39172;45.550;12.072;2022-11-09T04:27:40;9.40;;;5.93;;
53287;SDS011;39172;45.550;12.072;2022-11-09T04:33:42;12.50;;;8.57;;
53287;SDS011;39172;45.550;12.072;2022-11-09T04:39:43;10.88;;;7.28;;
53287;SDS011;39172;45.550;12.072;2022-11-09T04:45:43;15.82;;;10.82;;
53287;SDS011;39172;45.550;12.072;2022-11-09T04:51:45;18.05;;;11.02;;
53287;SDS011;39172;45.550;12.072;2022-11-09T04:57:46;16.27;;;9.90;;
53287;SDS011;39172;45.550;12.072;2022-11-09T05:03:47;15.35;;;10.55;;
53287;SDS011;39172;45.550;12.072;2022-11-09T05:09:48;15.52;;;10.13;;
53287;SDS011;39172;45.550;12.072;2022-11-09T05:15:49;15.50;;;10.13;;
53287;SDS011;39172;45.550;12.072;2022-11-09T05:21:49;18.75;;;12.43;;
53287;SDS011;39172;45.550;12.072;2022-11-09T05:27:51;17.13;;;11.45;;
53287;SDS011;39172;45.550;12.072;2022-11-09T05:33:52;13.18;;;8.70;;
53287;SDS011;39172;45.550;12.072;2022-11-09T05:39:53;14.40;;;9.50;;
53287;SDS011;39172;45.550;12.072;2022-11-09T05:45:54;11.82;;;8.52;;
53287;SDS011;39172;45.550;12.072;2022-11-09T05:51:55;17.80;;;10.52;;
53287;SDS011;39172;45.550;12.072;2022-11-09T05:57:56;12.57;;;9.10;;
53287;SDS011;39172;45.550;12.072;2022-11-09T06:03:57;15.15;;;9.98;;
53287;SDS011;39172;45.550;12.072;2022-11-09T06:09:58;13.85;;;9.20;;
53287;SDS011;39172;45.550;12.072;2022-11-09T06:15:59;11.55;;;7.80;;
53287;SDS011;39172;45.550;12.072;2022-11-09T06:22:00;13.25;;;8.95;;
53287;SDS011;39172;45.550;12.072;2022-11-09T06:28:01;11.73;;;8.20;;
53287;SDS011;39172;45.550;12.072;2022-11-09T06:34:02;12.90;;;8.77;;
53287;SDS011;39172;45.550;12.072;2022-11-09T06:40:04;13.02;;;8.20;;
53287;SDS011;39172;45.550;12.072;2022-11-09T06:46:05;14.43;;;9.60;;
53287;SDS011;39172;45.550;12.072;2022-11-09T06:52:06;12.68;;;8.95;;
53287;SDS011;39172;45.550;12.072;2022-11-09T06:58:11;14.65;;;9.23;;
53287;SDS011;39172;45.550;12.072;2022-11-09T07:04:13;11.45;;;7.85;;
53287;SDS011;39172;45.550;12.072;2022-11-09T07:10:15;10.93;;;7.00;;
53287;SDS011;39172;45.550;12.072;2022-11-09T07:16:16;16.55;;;9.45;;
53287;SDS011;39172;45.550;12.072;2022-11-09T07:22:16;15.32;;;10.10;;
53287;SDS011;39172;45.550;12.072;2022-11-09T07:28:17;17.10;;;9.85;;
53287;SDS011;39172;45.550;12.072;2022-11-09T07:34:18;12.57;;;7.82;;
53287;SDS011;39172;45.550;12.072;2022-11-09T07:40:19;12.23;;;8.10;;
53287;SDS011;39172;45.550;12.072;2022-11-09T07:46:20;10.90;;;6.53;;
53287;SDS011;39172;45.550;12.072;2022-11-09T07:52:21;15.27;;;8.93;;
53287;SDS011;39172;45.550;12.072;2022-11-09T07:58:22;10.13;;;6.90;;
53287;SDS011;39172;45.550;12.072;2022-11-09T08:04:23;14.93;;;9.43;;
53287;SDS011;39172;45.550;12.072;2022-11-09T08:10:24;11.02;;;7.43;;
53287;SDS011;39172;45.550;12.072;2022-11-09T08:16:26;11.45;;;7.63;;
53287;SDS011;39172;45.550;12.072;2022-11-09T08:22:29;13.52;;;8.32;;
53287;SDS011;39172;45.550;12.072;2022-11-09T08:28:31;9.52;;;6.47;;
53287;SDS011;39172;45.550;12.072;2022-11-09T08:34:32;13.00;;;8.07;;
53287;SDS011;39172;45.550;12.072;2022-11-09T08:40:33;11.00;;;6.32;;
53287;SDS011;39172;45.550;12.072;2022-11-09T08:46:34;11.00;;;6.97;;
53287;SDS011;39172;45.550;12.072;2022-11-09T08:52:35;9.40;;;6.38;;
53287;SDS011;39172;45.550;12.072;2022-11-09T08:58:36;10.60;;;7.13;;
53287;SDS011;39172;45.550;12.072;2022-11-09T09:04:38;11.48;;;6.40;;
53287;SDS011;39172;45.550;12.072;2022-11-09T09:10:39;8.55;;;5.40;;
53287;SDS011;39172;45.550;12.072;2022-11-09T09:16:40;12.60;;;8.63;;
53287;SDS011;39172;45.550;12.072;2022-11-09T09:22:41;9.30;;;5.03;;
53287;SDS011;39172;45.550;12.072;2022-11-09T09:28:42;5.75;;;3.95;;
53287;SDS011;39172;45.550;12.072;2022-11-09T09:34:44;7.90;;;5.63;;
53287;SDS011;39172;45.550;12.072;2022-11-09T09:53:01;10.02;;;6.28;;
53287;SDS011;39172;45.550;12.072;2022-11-09T09:59:12;11.05;;;7.00;;
53287;SDS011;39172;45.550;12.072;2022-11-09T10:05:15;7.65;;;4.70;;
53287;SDS011;39172;45.550;12.072;2022-11-09T10:17:27;9.63;;;6.32;;
53287;SDS011;39172;45.550;12.072;2022-11-09T10:29:43;9.75;;;6.32;;
53287;SDS011;39172;45.550;12.072;2022-11-09T10:42:12;18.95;;;11.27;;
53287;SDS011;39172;45.550;12.072;2022-11-09T10:48:36;17.08;;;10.00;;
53287;SDS011;39172;45.550;12.072;2022-11-09T10:55:14;20.02;;;12.68;;
53287;SDS011;39172;45.550;12.072;2022-11-09T11:01:36;15.07;;;9.25;;
53287;SDS011;39172;45.550;12.072;2022-11-09T11:07:56;19.30;;;11.07;;
53287;SDS011;39172;45.550;12.072;2022-11-09T11:14:17;14.07;;;8.83;;
53287;SDS011;39172;45.550;12.072;2022-11-09T11:20:37;16.00;;;10.25;;
53287;SDS011;39172;45.550;12.072;2022-11-09T11:27:03;17.83;;;11.18;;
53287;SDS011;39172;45.550;12.072;2022-11-09T11:33:24;20.45;;;12.30;;
53287;SDS011;39172;45.550;12.072;2022-11-09T11:39:55;19.35;;;11.90;;
53287;SDS011;39172;45.550;12.072;2022-11-09T11:59:32;12.45;;;7.65;;
53287;SDS011;39172;45.550;12.072;2022-11-09T12:25:26;18.65;;;11.73;;
53287;SDS011;39172;45.550;12.072;2022-11-09T12:44:30;26.40;;;15.05;;
53287;SDS011;39172;45.550;12.072;2022-11-09T12:50:51;19.08;;;11.93;;
53287;SDS011;39172;45.550;12.072;2022-11-09T12:57:16;21.17;;;13.05;;
53287;SDS011;39172;45.550;12.072;2022-11-09T13:03:50;25.65;;;14.45;;
53287;SDS011;39172;45.550;12.072;2022-11-09T13:23:41;19.40;;;11.93;;
53287;SDS011;39172;45.550;12.072;2022-11-09T13:30:10;20.77;;;13.00;;
53287;SDS011;39172;45.550;12.072;2022-11-09T13:36:39;15.65;;;9.98;;
53287;SDS011;39172;45.550;12.072;2022-11-09T13:42:59;21.98;;;13.02;;
53287;SDS011;39172;45.550;12.072;2022-11-09T13:49:39;23.83;;;14.85;;
53287;SDS011;39172;45.550;12.072;2022-11-09T13:56:10;15.25;;;9.93;;
53287;SDS011;39172;45.550;12.072;2022-11-09T14:02:31;25.10;;;15.35;;
53287;SDS011;39172;45.550;12.072;2022-11-09T14:08:50;18.77;;;11.93;;
53287;SDS011;39172;45.550;12.072;2022-11-09T14:21:52;23.33;;;13.93;;
53287;SDS011;39172;45.550;12.072;2022-11-09T14:28:21;30.52;;;17.88;;
53287;SDS011;39172;45.550;12.072;2022-11-09T14:34:41;20.48;;;11.77;;
53287;SDS011;39172;45.550;12.072;2022-11-09T14:41:01;23.83;;;14.05;;
53287;SDS011;39172;45.550;12.072;2022-11-09T14:47:23;25.58;;;14.82;;
53287;SDS011;39172;45.550;12.072;2022-11-09T14:53:45;24.80;;;14.70;;
53287;SDS011;39172;45.550;12.072;2022-11-09T15:00:20;25.13;;;13.45;;
53287;SDS011;39172;45.550;12.072;2022-11-09T15:06:47;18.38;;;10.40;;
53287;SDS011;39172;45.550;12.072;2022-11-09T15:13:07;31.20;;;18.17;;
53287;SDS011;39172;45.550;12.072;2022-11-09T15:38:41;24.65;;;14.30;;
53287;SDS011;39172;45.550;12.072;2022-11-09T15:45:02;29.77;;;18.52;;
53287;SDS011;39172;45.550;12.072;2022-11-09T15:51:22;29.55;;;17.17;;
53287;SDS011;39172;45.550;12.072;2022-11-09T15:57:42;24.35;;;14.35;;
53287;SDS011;39172;45.550;12.072;2022-11-09T16:04:01;31.98;;;19.08;;
53287;SDS011;39172;45.550;12.072;2022-11-09T16:10:41;28.17;;;15.93;;
53287;SDS011;39172;45.550;12.072;2022-11-09T16:17:02;39.97;;;22.90;;
53287;SDS011;39172;45.550;12.072;2022-11-09T16:23:21;29.65;;;16.83;;
53287;SDS011;39172;45.550;12.072;2022-11-09T16:29:41;29.63;;;18.05;;
53287;SDS011;39172;45.550;12.072;2022-11-09T16:36:19;29.20;;;17.30;;
53287;SDS011;39172;45.550;12.072;2022-11-09T16:42:39;24.90;;;14.48;;
53287;SDS011;39172;45.550;12.072;2022-11-09T16:48:59;33.55;;;20.35;;
53287;SDS011;39172;45.550;12.072;2022-11-09T16:55:19;27.48;;;17.13;;
53287;SDS011;39172;45.550;12.072;2022-11-09T17:01:39;40.10;;;22.57;;
53287;SDS011;39172;45.550;12.072;2022-11-09T17:07:59;30.53;;;18.10;;
53287;SDS011;39172;45.550;12.072;2022-11-09T17:14:18;25.88;;;16.00;;
53287;SDS011;39172;45.550;12.072;2022-11-09T17:20:44;40.42;;;24.23;;
53287;SDS011;39172;45.550;12.072;2022-11-09T17:27:06;30.42;;;18.73;;
53287;SDS011;39172;45.550;12.072;2022-11-09T17:33:25;32.10;;;19.95;;
53287;SDS011;39172;45.550;12.072;2022-11-09T17:39:46;29.52;;;17.80;;
53287;SDS011;39172;45.550;12.072;2022-11-09T17:46:06;26.90;;;16.23;;
53287;SDS011;39172;45.550;12.072;2022-11-09T17:52:26;35.38;;;21.90;;
53287;SDS011;39172;45.550;12.072;2022-11-09T17:58:46;24.17;;;15.67;;
53287;SDS011;39172;45.550;12.072;2022-11-09T18:05:05;24.05;;;15.27;;
53287;SDS011;39172;45.550;12.072;2022-11-09T18:11:25;31.50;;;19.80;;
53287;SDS011;39172;45.550;12.072;2022-11-09T18:17:44;26.63;;;17.00;;
53287;SDS011;39172;45.550;12.072;2022-11-09T18:24:04;43.97;;;26.00;;
53287;SDS011;39172;45.550;12.072;2022-11-09T18:30:23;33.40;;;20.88;;
53287;SDS011;39172;45.550;12.072;2022-11-09T18:36:43;28.57;;;17.37;;
53287;SDS011;39172;45.550;12.072;2022-11-09T18:43:02;43.03;;;25.48;;
53287;SDS011;39172;45.550;12.072;2022-11-09T18:49:22;27.60;;;17.60;;
53287;SDS011;39172;45.550;12.072;2022-11-09T18:55:41;27.45;;;17.67;;
53287;SDS011;39172;45.550;12.072;2022-11-09T19:02:01;29.85;;;18.92;;
53287;SDS011;39172;45.550;12.072;2022-11-09T19:08:24;31.55;;;20.13;;
53287;SDS011;39172;45.550;12.072;2022-11-09T19:15:02;40.15;;;27.33;;
53287;SDS011;39172;45.550;12.072;2022-11-09T19:27:54;32.22;;;21.00;;
53287;SDS011;39172;45.550;12.072;2022-11-09T19:34:15;49.70;;;31.77;;
53287;SDS011;39172;45.550;12.072;2022-11-09T19:40:34;40.97;;;26.83;;
53287;SDS011;39172;45.550;12.072;2022-11-09T19:46:53;32.08;;;21.63;;
53287;SDS011;39172;45.550;12.072;2022-11-09T19:53:13;39.67;;;25.02;;
53287;SDS011;39172;45.550;12.072;2022-11-09T19:59:32;29.67;;;18.05;;
53287;SDS011;39172;45.550;12.072;2022-11-09T20:05:52;41.23;;;27.03;;
53287;SDS011;39172;45.550;12.072;2022-11-09T20:12:12;38.20;;;23.67;;
53287;SDS011;39172;45.550;12.072;2022-11-09T20:18:50;26.40;;;15.82;;
53287;SDS011;39172;45.550;12.072;2022-11-09T20:25:09;25.20;;;15.82;;
53287;SDS011;39172;45.550;12.072;2022-11-09T20:31:29;39.45;;;24.27;;
53287;SDS011;39172;45.550;12.072;2022-11-09T20:37:48;25.60;;;17.23;;
53287;SDS011;39172;45.550;12.072;2022-11-09T20:44:08;29.83;;;19.20;;
53287;SDS011;39172;45.550;12.072;2022-11-09T20:50:28;22.02;;;14.77;;
53287;SDS011;39172;45.550;12.072;2022-11-09T20:56:47;42.85;;;28.30;;
53287;SDS011;39172;45.550;12.072;2022-11-09T21:03:07;31.92;;;21.88;;
53287;SDS011;39172;45.550;12.072;2022-11-09T21:09:26;22.63;;;15.40;;
53287;SDS011;39172;45.550;12.072;2022-11-09T21:15:46;37.47;;;24.27;;
53287;SDS011;39172;45.550;12.072;2022-11-09T21:22:06;24.45;;;16.98;;
53287;SDS011;39172;45.550;12.072;2022-11-09T21:28:26;18.60;;;12.83;;
53287;SDS011;39172;45.550;12.072;2022-11-09T21:35:04;24.80;;;15.57;;
53287;SDS011;39172;45.550;12.072;2022-11-09T21:41:24;21.50;;;12.87;;
53287;SDS011;39172;45.550;12.072;2022-11-09T21:47:55;21.10;;;14.45;;
53287;SDS011;39172;45.550;12.072;2022-11-09T21:54:15;32.25;;;20.88;;
53287;SDS011;39172;45.550;12.072;2022-11-09T22:00:35;32.53;;;20.67;;
53287;SDS011;39172;45.550;12.072;2022-11-09T22:06:54;24.55;;;16.85;;
53287;SDS011;39172;45.550;12.072;2022-11-09T22:13:14;37.00;;;24.83;;
53287;SDS011;39172;45.550;12.072;2022-11-09T22:19:52;32.40;;;20.13;;
53287;SDS011;39172;45.550;12.072;2022-11-09T22:26:30;22.75;;;14.98;;
53287;SDS011;39172;45.550;12.072;2022-11-09T22:32:50;32.63;;;21.73;;
53287;SDS011;39172;45.550;12.072;2022-11-09T22:39:09;33.78;;;21.95;;
53287;SDS011;39172;45.550;12.072;2022-11-09T22:45:31;30.27;;;20.40;;
53287;SDS011;39172;45.550;12.072;2022-11-09T22:51:51;37.42;;;23.60;;
53287;SDS011;39172;45.550;12.072;2022-11-09T22:58:11;28.67;;;19.05;;
53287;SDS011;39172;45.550;12.072;2022-11-09T23:04:30;18.55;;;11.85;;
53287;SDS011;39172;45.550;12.072;2022-11-09T23:10:54;22.05;;;14.18;;
53287;SDS011;39172;45.550;12.072;2022-11-09T23:17:13;27.38;;;17.73;;
53287;SDS011;39172;45.550;12.072;2022-11-09T23:23:54;22.55;;;15.18;;
53287;SDS011;39172;45.550;12.072;2022-11-09T23:30:13;33.20;;;21.88;;
53287;SDS011;39172;45.550;12.072;2022-11-09T23:36:33;36.53;;;22.77;;
53287;SDS011;39172;45.550;12.072;2022-11-09T23:42:58;22.48;;;14.75;;
53287;SDS011;39172;45.550;12.072;2022-11-09T23:49:17;33.15;;;20.75;;
53287;SDS011;39172;45.550;12.072;2022-11-09T23:55:37;30.30;;;19.83;;
